In Rescue
 
Open Full Screen Window  High Contrast Mode
Wind Gusting 23 knots
16
May 13, 2021 11:26 AM CDT
Weather Information
Wind Direction
  240 °
Wind Speed
  16 kt (18 mph)
Wind Gust
  23 kt (26 mph)
Altimeter
30.28 in
Visibility
10 SM
Temperature
18° C
64° F
Dewpoint
03° C
37° F
Humidity
37%
1hr Rain Fall
00.00 in.
24hr Rain Fall
00.00 in.
Sky Condition
Missing
VFR

METAR KPQN 131626Z AUTO 24016G23KT 10SM 18/03 A3028 RMK AO2

FAA Disclaimer: The data displayed is for advisory purposes only and is not to be used for flight planning or operations.
Missing Cloud Data